createdAt,value
2023-05-01T05:01:08.080Z,26.71
2023-05-01T05:02:08.104Z,26.70
2023-05-01T05:03:08.284Z,26.70
2023-05-01T05:04:08.254Z,26.69
2023-05-01T05:05:08.209Z,26.71
2023-05-01T05:06:08.286Z,26.70
2023-05-01T05:07:08.251Z,26.71
2023-05-01T05:08:08.273Z,26.70
2023-05-01T05:09:08.311Z,26.71
2023-05-01T05:10:08.399Z,26.70
2023-05-01T05:11:08.373Z,26.73
2023-05-01T05:12:08.382Z,26.74
2023-05-01T05:13:08.392Z,26.71
2023-05-01T05:14:08.394Z,26.74
2023-05-01T05:15:08.399Z,26.74
2023-05-01T05:16:08.442Z,26.77
2023-05-01T05:17:08.501Z,26.74
2023-05-01T05:18:08.533Z,26.76
2023-05-01T05:19:08.484Z,26.76
2023-05-01T05:20:08.548Z,26.76
2023-05-01T05:21:08.522Z,26.79
2023-05-01T05:22:08.545Z,26.80
2023-05-01T05:23:08.836Z,26.79
2023-05-01T05:24:08.567Z,26.79
2023-05-01T05:25:08.627Z,26.77
2023-05-01T05:26:08.669Z,26.79
2023-05-01T05:27:08.665Z,26.79
2023-05-01T05:28:08.701Z,26.80
2023-05-01T05:29:08.711Z,26.79
2023-05-01T05:30:08.739Z,26.80
2023-05-01T05:31:08.780Z,26.80
2023-05-01T05:32:08.865Z,26.81
2023-05-01T05:33:08.988Z,26.83
2023-05-01T05:34:08.915Z,26.83
2023-05-01T05:35:08.927Z,26.81
2023-05-01T05:36:08.962Z,26.81
2023-05-01T05:37:09.010Z,26.81
2023-05-01T05:38:09.093Z,26.81
2023-05-01T05:39:09.111Z,26.81
2023-05-01T05:40:09.223Z,26.81
2023-05-01T05:41:09.278Z,26.81
2023-05-01T05:42:09.218Z,26.81
2023-05-01T05:43:09.287Z,26.83
2023-05-01T05:44:09.310Z,26.81
2023-05-01T05:45:09.384Z,26.83
2023-05-01T05:46:09.596Z,26.81
2023-05-01T05:47:09.486Z,26.83
2023-05-01T05:48:09.616Z,26.83
2023-05-01T05:49:09.592Z,26.84
2023-05-01T05:50:09.640Z,26.84
2023-05-01T05:51:09.664Z,26.84
2023-05-01T05:52:09.759Z,26.83
2023-05-01T05:53:09.742Z,26.84
2023-05-01T05:54:09.783Z,26.84
2023-05-01T05:55:09.816Z,26.84
2023-05-01T05:56:09.849Z,26.81
2023-05-01T05:57:10.035Z,26.84
2023-05-01T05:58:09.900Z,26.83
2023-05-01T05:59:09.985Z,26.84
2023-05-01T06:00:10.040Z,26.84
2023-05-01T06:01:10.059Z,26.84
2023-05-01T06:02:10.130Z,26.84
2023-05-01T06:03:10.222Z,26.83
2023-05-01T06:04:10.197Z,26.84
2023-05-01T06:05:10.198Z,26.84
2023-05-01T06:06:10.354Z,26.84
2023-05-01T06:07:10.276Z,26.84
2023-05-01T06:08:10.322Z,26.84
2023-05-01T06:09:10.352Z,26.84
2023-05-01T06:10:10.384Z,26.86
2023-05-01T06:11:10.401Z,26.87
2023-05-01T06:12:10.448Z,26.84
2023-05-01T06:13:14.300Z,26.84
2023-05-01T06:14:10.496Z,26.84
2023-05-01T06:15:10.478Z,26.84
2023-05-01T06:16:10.556Z,26.84
2023-05-01T06:17:10.490Z,26.86
2023-05-01T06:18:10.556Z,26.86
2023-05-01T06:19:10.499Z,26.86
2023-05-01T06:20:10.475Z,26.84
2023-05-01T06:21:10.477Z,26.86
2023-05-01T06:22:10.492Z,26.84
2023-05-01T06:23:10.435Z,26.86
2023-05-01T06:24:10.465Z,26.84
2023-05-01T06:25:10.492Z,26.86
2023-05-01T06:26:10.482Z,26.86
2023-05-01T06:27:10.463Z,26.87
2023-05-01T06:28:10.431Z,26.86
2023-05-01T06:29:10.442Z,26.87
2023-05-01T06:30:10.442Z,26.89
2023-05-01T06:31:10.421Z,26.86
2023-05-01T06:32:10.385Z,26.86
2023-05-01T06:33:10.418Z,26.86
2023-05-01T06:34:10.373Z,26.87
2023-05-01T06:35:10.367Z,26.87
2023-05-01T06:36:10.373Z,26.86
2023-05-01T06:37:10.368Z,26.86
2023-05-01T06:38:10.354Z,26.86
2023-05-01T06:39:10.396Z,26.86
2023-05-01T06:40:10.458Z,26.87
2023-05-01T06:41:10.500Z,26.86
2023-05-01T06:42:10.542Z,26.84
2023-05-01T06:43:10.568Z,26.86
2023-05-01T06:44:10.696Z,26.87
2023-05-01T06:45:10.666Z,26.86
2023-05-01T06:46:10.785Z,26.87
2023-05-01T06:47:10.793Z,26.86
2023-05-01T06:48:10.778Z,26.87
2023-05-01T06:49:10.787Z,26.86
2023-05-01T06:50:10.894Z,26.86
2023-05-01T06:51:10.918Z,26.84
2023-05-01T06:52:10.907Z,26.89
2023-05-01T06:53:10.964Z,26.87
2023-05-01T06:54:11.011Z,26.87
2023-05-01T06:55:11.064Z,26.84
2023-05-01T06:56:11.088Z,26.87
2023-05-01T06:57:11.133Z,26.86
2023-05-01T06:58:22.556Z,26.84
2023-05-01T06:59:12.163Z,26.89
2023-05-01T07:00:11.212Z,26.87
2023-05-01T07:01:11.177Z,26.86
2023-05-01T07:02:11.221Z,26.86
2023-05-01T07:03:11.135Z,26.89
2023-05-01T07:04:11.115Z,26.87
2023-05-01T07:05:11.119Z,26.86
2023-05-01T07:06:11.248Z,26.87
2023-05-01T07:07:11.115Z,26.86
2023-05-01T07:08:11.153Z,26.86
2023-05-01T07:09:11.088Z,26.89
2023-05-01T07:10:11.181Z,26.86
2023-05-01T07:11:11.202Z,26.86
2023-05-01T07:12:11.205Z,26.86
2023-05-01T07:13:11.231Z,26.87
2023-05-01T07:14:11.255Z,26.86
2023-05-01T07:15:11.364Z,26.87
2023-05-01T07:16:11.390Z,26.87
2023-05-01T07:17:11.404Z,26.89
2023-05-01T07:18:11.488Z,26.87
2023-05-01T07:19:11.509Z,26.87
2023-05-01T07:20:11.600Z,26.87
2023-05-01T07:21:11.570Z,26.86
2023-05-01T07:22:11.630Z,26.86
2023-05-01T07:23:11.684Z,26.87
2023-05-01T07:24:11.717Z,26.87
2023-05-01T07:25:11.864Z,26.87
2023-05-01T07:26:11.799Z,26.89
2023-05-01T07:27:11.852Z,26.87
2023-05-01T07:28:11.897Z,26.87
2023-05-01T07:29:11.951Z,26.87
2023-05-01T07:30:11.970Z,26.89
2023-05-01T07:31:12.038Z,26.87
2023-05-01T07:32:12.208Z,26.87
2023-05-01T07:33:12.126Z,26.87
2023-05-01T07:34:12.162Z,26.87
2023-05-01T07:35:12.223Z,26.89
2023-05-01T07:36:12.238Z,26.86
2023-05-01T07:37:12.312Z,26.87
2023-05-01T07:38:12.279Z,26.87
2023-05-01T07:39:12.389Z,26.87
2023-05-01T07:40:12.391Z,26.86
2023-05-01T07:41:12.441Z,26.89
2023-05-01T07:42:12.495Z,26.89
2023-05-01T07:43:12.556Z,26.87
2023-05-01T07:44:12.580Z,26.87
2023-05-01T07:45:12.640Z,26.87
2023-05-01T07:46:12.792Z,26.87
2023-05-01T07:47:12.697Z,26.87
2023-05-01T07:48:12.892Z,26.87
2023-05-01T07:49:12.815Z,26.89
2023-05-01T07:50:12.942Z,26.89
2023-05-01T07:51:12.830Z,26.89
2023-05-01T07:52:12.889Z,26.87
2023-05-01T07:53:12.927Z,26.90
2023-05-01T07:54:12.991Z,26.89
2023-05-01T07:55:13.085Z,26.87
2023-05-01T07:56:13.047Z,26.89
2023-05-01T07:57:13.076Z,26.89
2023-05-01T07:58:13.123Z,26.87
2023-05-01T07:59:13.180Z,26.89
2023-05-01T08:00:13.238Z,26.90
2023-05-01T08:01:13.249Z,26.87
2023-05-01T08:02:13.366Z,26.90
2023-05-01T08:03:13.490Z,26.90
2023-05-01T08:04:13.544Z,26.93
2023-05-01T08:05:13.480Z,26.93
2023-05-01T08:06:13.513Z,26.91
2023-05-01T08:07:13.561Z,26.95
2023-05-01T08:08:13.611Z,26.91
2023-05-01T08:09:13.653Z,26.97
2023-05-01T08:10:13.693Z,26.95
2023-05-01T08:11:13.726Z,26.97
2023-05-01T08:12:13.834Z,26.97
2023-05-01T08:13:13.888Z,27.00
2023-05-01T08:14:13.959Z,27.01
2023-05-01T08:15:14.001Z,26.98
2023-05-01T08:16:14.118Z,27.01
2023-05-01T08:17:14.124Z,27.01
2023-05-01T08:18:14.154Z,27.04
2023-05-01T08:19:14.188Z,27.04
2023-05-01T08:20:14.308Z,27.05
2023-05-01T08:21:14.338Z,27.04
2023-05-01T08:22:14.381Z,27.05
2023-05-01T08:23:14.472Z,27.05
2023-05-01T08:24:14.460Z,27.10
2023-05-01T08:25:14.547Z,27.07
2023-05-01T08:26:14.665Z,27.10
2023-05-01T08:27:14.643Z,27.10
2023-05-01T08:28:14.725Z,27.11
2023-05-01T08:29:14.762Z,27.11
2023-05-01T08:30:14.829Z,27.11
2023-05-01T08:31:14.876Z,27.13
2023-05-01T08:32:14.924Z,27.14
2023-05-01T08:33:15.047Z,27.13
2023-05-01T08:34:15.017Z,27.13
2023-05-01T08:35:15.085Z,27.13
2023-05-01T08:36:15.146Z,27.11
2023-05-01T08:37:15.173Z,27.14
2023-05-01T08:38:15.264Z,27.15
2023-05-01T08:39:15.276Z,27.15
2023-05-01T08:40:15.398Z,27.15
2023-05-01T08:41:15.380Z,27.18
2023-05-01T08:42:15.450Z,27.17
2023-05-01T08:43:15.495Z,27.15
2023-05-01T08:44:15.534Z,27.17
2023-05-01T08:45:15.552Z,27.20
2023-05-01T08:46:15.693Z,27.17
2023-05-01T08:47:15.624Z,27.20
2023-05-01T08:48:15.699Z,27.15
2023-05-01T08:49:15.749Z,27.17
2023-05-01T08:50:15.762Z,27.18
2023-05-01T08:51:15.817Z,27.18
2023-05-01T08:52:15.921Z,27.18
2023-05-01T08:53:15.907Z,27.18
2023-05-01T08:54:15.990Z,27.20
2023-05-01T08:55:15.997Z,27.21
2023-05-01T08:56:16.065Z,27.21
2023-05-01T08:57:16.093Z,27.18
2023-05-01T08:58:16.114Z,27.21
2023-05-01T08:59:16.151Z,27.21
2023-05-01T09:00:16.173Z,27.21
2023-05-01T09:01:16.327Z,27.23
2023-05-01T09:02:16.340Z,27.24
2023-05-01T09:03:16.453Z,27.25
2023-05-01T09:04:16.422Z,27.25
2023-05-01T09:05:16.417Z,27.24
2023-05-01T09:06:16.534Z,27.24
2023-05-01T09:07:16.525Z,27.25
2023-05-01T09:08:16.560Z,27.25
2023-05-01T09:09:16.585Z,27.25
2023-05-01T09:10:16.626Z,27.27
2023-05-01T09:11:16.720Z,27.27
2023-05-01T09:12:16.699Z,27.28
2023-05-01T09:13:16.716Z,27.28
2023-05-01T09:14:16.821Z,27.28
2023-05-01T09:15:16.776Z,27.28
2023-05-01T09:16:16.886Z,27.28
2023-05-01T09:17:16.905Z,27.28
2023-05-01T09:18:17.054Z,27.28
2023-05-01T09:19:16.903Z,27.28
2023-05-01T09:20:16.954Z,27.27
2023-05-01T09:21:16.973Z,27.30
2023-05-01T09:22:17.021Z,27.33
2023-05-01T09:23:17.034Z,27.31
2023-05-01T09:24:17.072Z,27.31
2023-05-01T09:25:17.089Z,27.33
2023-05-01T09:26:17.213Z,27.31
2023-05-01T09:27:17.160Z,27.31
2023-05-01T09:28:17.214Z,27.33
2023-05-01T09:29:17.233Z,27.35
2023-05-01T09:30:17.303Z,27.33
2023-05-01T09:31:17.421Z,27.34
2023-05-01T09:32:17.479Z,27.34
2023-05-01T09:33:17.469Z,27.34
2023-05-01T09:34:17.398Z,27.34
2023-05-01T09:35:17.499Z,27.37
2023-05-01T09:36:17.477Z,27.37
2023-05-01T09:37:17.534Z,27.35
2023-05-01T09:38:17.519Z,27.40
2023-05-01T09:39:17.595Z,27.35
2023-05-01T09:40:17.571Z,27.38
2023-05-01T09:41:17.609Z,27.35
2023-05-01T09:42:17.684Z,27.40
2023-05-01T09:43:17.638Z,27.37
2023-05-01T09:44:17.751Z,27.38
2023-05-01T09:45:17.714Z,27.40
2023-05-01T09:46:17.752Z,27.40
2023-05-01T09:47:17.764Z,27.41
2023-05-01T09:48:17.783Z,27.41
2023-05-01T09:49:17.823Z,27.44
2023-05-01T09:50:17.839Z,27.41
2023-05-01T09:51:17.842Z,27.42
2023-05-01T09:52:17.954Z,27.45
2023-05-01T09:53:17.936Z,27.46
2023-05-01T09:54:17.958Z,27.44
2023-05-01T09:55:17.943Z,27.48
2023-05-01T09:56:18.017Z,27.46
2023-05-01T09:57:18.020Z,27.49
2023-05-01T09:58:18.079Z,27.46
2023-05-01T09:59:18.072Z,27.46
2023-05-01T10:00:18.122Z,27.48
2023-05-01T10:01:18.192Z,27.49
2023-05-01T10:02:18.282Z,27.49
2023-05-01T10:03:18.245Z,27.51
2023-05-01T10:04:18.302Z,27.51
2023-05-01T10:05:18.219Z,27.49
2023-05-01T10:06:18.305Z,27.49
2023-05-01T10:07:18.325Z,27.52
2023-05-01T10:08:18.337Z,27.54
2023-05-01T10:09:18.356Z,27.54
2023-05-01T10:10:18.538Z,27.51
2023-05-01T10:11:18.375Z,27.51
2023-05-01T10:12:18.445Z,27.54
2023-05-01T10:13:18.412Z,27.51
2023-05-01T10:14:18.462Z,27.54
2023-05-01T10:15:25.432Z,27.51
2023-05-01T10:16:19.498Z,27.52
2023-05-01T10:17:18.638Z,27.52
2023-05-01T10:18:18.471Z,27.52
2023-05-01T10:19:18.440Z,27.54
2023-05-01T10:20:18.424Z,27.52
2023-05-01T10:21:18.441Z,27.55
2023-05-01T10:22:18.453Z,27.55
2023-05-01T10:23:18.430Z,27.55
2023-05-01T10:24:18.549Z,27.54
2023-05-01T10:25:18.369Z,27.56
2023-05-01T10:26:18.397Z,27.55
2023-05-01T10:27:18.415Z,27.55
2023-05-01T10:28:18.379Z,27.56
2023-05-01T10:29:18.352Z,27.56
2023-05-01T10:30:18.373Z,27.56
2023-05-01T10:31:18.410Z,27.54
2023-05-01T10:32:18.387Z,27.56
2023-05-01T10:33:18.427Z,27.58
2023-05-01T10:34:18.380Z,27.55
2023-05-01T10:35:18.425Z,27.55
2023-05-01T10:36:18.442Z,27.56
2023-05-01T10:37:18.501Z,27.56
2023-05-01T10:38:18.485Z,27.58
2023-05-01T10:39:18.451Z,27.58
2023-05-01T10:40:18.475Z,27.58
2023-05-01T10:41:18.497Z,27.58
2023-05-01T10:42:18.574Z,27.59
2023-05-01T10:43:18.632Z,27.58
2023-05-01T10:44:18.618Z,27.56
2023-05-01T10:45:18.631Z,27.56
2023-05-01T10:46:18.686Z,27.59
2023-05-01T10:47:18.754Z,27.58
2023-05-01T10:48:18.664Z,27.61
2023-05-01T10:49:18.692Z,27.59
2023-05-01T10:50:18.742Z,27.61
2023-05-01T10:51:18.761Z,27.59
2023-05-01T10:52:18.758Z,27.61
2023-05-01T10:53:18.848Z,27.59
2023-05-01T10:54:18.839Z,27.61
2023-05-01T10:55:18.872Z,27.62
2023-05-01T10:56:18.876Z,27.59
2023-05-01T10:57:18.893Z,27.59
2023-05-01T10:58:18.884Z,27.61
2023-05-01T10:59:18.925Z,27.62
2023-05-01T11:00:19.017Z,27.61
2023-05-01T11:01:19.051Z,27.62
2023-05-01T11:02:19.061Z,27.62
2023-05-01T11:03:19.015Z,27.62
2023-05-01T11:04:19.046Z,27.65
2023-05-01T11:05:28.894Z,27.65
2023-05-01T11:06:20.276Z,27.65
2023-05-01T11:07:19.373Z,27.62
2023-05-01T11:08:19.058Z,27.65
2023-05-01T11:09:19.093Z,27.66
2023-05-01T11:10:19.086Z,27.66
2023-05-01T11:11:19.041Z,27.66
2023-05-01T11:12:19.058Z,27.65
2023-05-01T11:13:19.006Z,27.66
2023-05-01T11:14:19.003Z,27.65
2023-05-01T11:15:19.024Z,27.66
2023-05-01T11:16:19.005Z,27.66
2023-05-01T11:17:19.026Z,27.66
2023-05-01T11:18:19.032Z,27.68
2023-05-01T11:19:18.989Z,27.71
2023-05-01T11:20:18.971Z,27.69
2023-05-01T11:21:18.983Z,27.69
2023-05-01T11:22:19.010Z,27.69
2023-05-01T11:23:18.987Z,27.68
2023-05-01T11:24:19.018Z,27.68
2023-05-01T11:25:19.046Z,27.69
2023-05-01T11:26:19.023Z,27.69
2023-05-01T11:27:19.046Z,27.68
2023-05-01T11:28:19.016Z,27.71
2023-05-01T11:29:19.070Z,27.69
2023-05-01T11:30:19.099Z,27.71
2023-05-01T11:31:19.162Z,27.71
2023-05-01T11:32:19.265Z,27.69
2023-05-01T11:33:19.203Z,27.71
2023-05-01T11:34:19.216Z,27.72
2023-05-01T11:35:19.201Z,27.71
2023-05-01T11:36:19.216Z,27.71
2023-05-01T11:37:19.238Z,27.72
2023-05-01T11:38:19.271Z,27.73
2023-05-01T11:39:19.288Z,27.72
2023-05-01T11:40:19.293Z,27.69
2023-05-01T11:41:20.339Z,27.71
2023-05-01T11:42:19.373Z,27.72
2023-05-01T11:43:19.405Z,27.72
2023-05-01T11:44:19.378Z,27.71
2023-05-01T11:45:19.398Z,27.73
2023-05-01T11:46:19.523Z,27.72
2023-05-01T11:47:19.480Z,27.72
2023-05-01T11:48:19.525Z,27.75
2023-05-01T11:49:19.477Z,27.73
2023-05-01T11:50:19.507Z,27.73
2023-05-01T11:51:19.657Z,27.76
2023-05-01T11:52:19.562Z,27.78
2023-05-01T11:53:19.563Z,27.73
2023-05-01T11:54:19.606Z,27.75
2023-05-01T11:55:19.626Z,27.75
2023-05-01T11:56:26.650Z,27.75
2023-05-01T11:57:20.615Z,27.75
2023-05-01T11:58:19.631Z,27.73
2023-05-01T11:59:19.625Z,27.75
2023-05-01T12:00:19.579Z,27.76
2023-05-01T12:01:19.638Z,27.73
2023-05-01T12:02:19.657Z,27.76
2023-05-01T12:03:19.727Z,27.75
2023-05-01T12:04:19.658Z,27.78
2023-05-01T12:05:19.567Z,27.76
2023-05-01T12:06:19.584Z,27.75
2023-05-01T12:07:19.577Z,27.76
2023-05-01T12:08:19.572Z,27.76
2023-05-01T12:09:19.527Z,27.75
2023-05-01T12:10:19.518Z,27.75
2023-05-01T12:11:19.546Z,27.73
2023-05-01T12:12:19.510Z,27.75
2023-05-01T12:13:19.517Z,27.73
2023-05-01T12:14:19.543Z,27.75
2023-05-01T12:15:19.471Z,27.72
2023-05-01T12:16:19.554Z,27.71
2023-05-01T12:17:19.709Z,27.72
2023-05-01T12:18:19.728Z,27.72
2023-05-01T12:19:21.631Z,27.71
2023-05-01T12:20:19.550Z,27.71
2023-05-01T12:21:19.565Z,27.71
2023-05-01T12:22:19.622Z,27.69
2023-05-01T12:23:19.606Z,27.69
2023-05-01T12:24:19.642Z,27.68
2023-05-01T12:25:19.639Z,27.69
2023-05-01T12:26:19.763Z,27.71
2023-05-01T12:27:19.721Z,27.68
2023-05-01T12:28:19.873Z,27.65
2023-05-01T12:29:19.783Z,27.68
2023-05-01T12:30:19.814Z,27.65
2023-05-01T12:31:19.839Z,27.66
2023-05-01T12:32:19.826Z,27.66
2023-05-01T12:33:19.918Z,27.66
2023-05-01T12:34:19.893Z,27.66
2023-05-01T12:35:19.923Z,27.65
2023-05-01T12:36:19.929Z,27.65
2023-05-01T12:37:19.946Z,27.66
2023-05-01T12:38:19.981Z,27.65
2023-05-01T12:39:19.978Z,27.64
2023-05-01T12:40:20.048Z,27.65
2023-05-01T12:41:20.060Z,27.65
2023-05-01T12:42:20.054Z,27.66
2023-05-01T12:43:20.088Z,27.65
2023-05-01T12:44:20.123Z,27.68
2023-05-01T12:45:20.163Z,27.66
2023-05-01T12:46:20.205Z,27.66
2023-05-01T12:47:20.170Z,27.65
2023-05-01T12:48:20.182Z,27.66
2023-05-01T12:49:20.217Z,27.64
2023-05-01T12:50:20.219Z,27.65
2023-05-01T12:51:20.237Z,27.64
2023-05-01T12:52:20.249Z,27.64
2023-05-01T12:53:20.314Z,27.62
2023-05-01T12:54:20.334Z,27.62
2023-05-01T12:55:20.344Z,27.62
2023-05-01T12:56:20.315Z,27.64
2023-05-01T12:57:20.372Z,27.62
2023-05-01T12:58:20.383Z,27.65
2023-05-01T12:59:20.416Z,27.64
2023-05-01T13:00:20.449Z,27.65
2023-05-01T13:01:20.473Z,27.65
2023-05-01T13:02:20.518Z,27.65
2023-05-01T13:03:20.536Z,27.66
2023-05-01T13:04:20.618Z,27.66
2023-05-01T13:05:20.521Z,27.68
2023-05-01T13:06:20.554Z,27.68
2023-05-01T13:07:20.574Z,27.68
2023-05-01T13:08:20.575Z,27.65
2023-05-01T13:09:20.584Z,27.71
2023-05-01T13:10:20.625Z,27.71
2023-05-01T13:11:20.678Z,27.73
2023-05-01T13:12:20.676Z,27.71
2023-05-01T13:13:20.667Z,27.73
2023-05-01T13:14:20.749Z,27.73
2023-05-01T13:15:20.737Z,27.73
2023-05-01T13:16:20.841Z,27.75
2023-05-01T13:17:20.850Z,27.76
2023-05-01T13:18:20.807Z,27.76
2023-05-01T13:19:20.808Z,27.73
2023-05-01T13:20:20.876Z,27.76
2023-05-01T13:21:20.908Z,27.78
2023-05-01T13:22:20.881Z,27.76
2023-05-01T13:23:20.917Z,27.76
2023-05-01T13:24:20.886Z,27.79
2023-05-01T13:25:21.041Z,27.78
2023-05-01T13:26:20.993Z,27.78
2023-05-01T13:27:21.001Z,27.76
2023-05-01T13:28:21.024Z,27.78
2023-05-01T13:29:21.017Z,27.79
2023-05-01T13:30:21.077Z,27.79
2023-05-01T13:31:21.193Z,27.82
2023-05-01T13:32:21.145Z,27.79
2023-05-01T13:33:21.142Z,27.81
2023-05-01T13:34:21.135Z,27.81
2023-05-01T13:35:21.226Z,27.82
2023-05-01T13:36:26.154Z,27.85
2023-05-01T13:37:22.198Z,27.84
2023-05-01T13:38:21.180Z,27.84
2023-05-01T13:39:21.470Z,27.85
2023-05-01T13:40:21.158Z,27.84
2023-05-01T13:41:21.146Z,27.85
2023-05-01T13:42:21.231Z,27.86
2023-05-01T13:43:21.137Z,27.86
2023-05-01T13:44:21.135Z,27.88
2023-05-01T13:45:21.152Z,27.86
2023-05-01T13:46:21.184Z,27.89
2023-05-01T13:47:21.135Z,27.88
2023-05-01T13:48:21.151Z,27.88
2023-05-01T13:49:21.100Z,27.86
2023-05-01T13:50:21.111Z,27.89
2023-05-01T13:51:21.083Z,27.86
2023-05-01T13:52:21.056Z,27.88
2023-05-01T13:53:21.053Z,27.89
2023-05-01T13:54:21.061Z,27.88
2023-05-01T13:55:21.112Z,27.88
2023-05-01T13:56:21.075Z,27.88
2023-05-01T13:57:21.080Z,27.89
2023-05-01T13:58:21.064Z,27.88
2023-05-01T13:59:21.030Z,27.88
2023-05-01T14:00:21.076Z,27.89
2023-05-01T14:01:21.386Z,27.89
2023-05-01T14:02:21.114Z,27.91
2023-05-01T14:03:21.246Z,27.91
2023-05-01T14:04:21.325Z,27.88
2023-05-01T14:05:21.148Z,27.92
2023-05-01T14:06:21.304Z,27.91
2023-05-01T14:07:21.227Z,27.91
2023-05-01T14:08:21.194Z,27.91
2023-05-01T14:09:21.273Z,27.92
2023-05-01T14:10:21.235Z,27.91
2023-05-01T14:11:21.331Z,27.92
2023-05-01T14:12:21.334Z,27.91
2023-05-01T14:13:21.306Z,27.92
2023-05-01T14:14:21.303Z,27.92
2023-05-01T14:15:21.354Z,27.93
2023-05-01T14:16:21.338Z,27.92
2023-05-01T14:17:21.347Z,27.93
2023-05-01T14:18:21.395Z,27.91
2023-05-01T14:19:21.519Z,27.91
2023-05-01T14:20:21.401Z,27.89
2023-05-01T14:21:21.395Z,27.88
2023-05-01T14:22:21.430Z,27.88
2023-05-01T14:23:21.423Z,27.88
2023-05-01T14:24:21.439Z,27.88
2023-05-01T14:25:21.505Z,27.89
2023-05-01T14:26:21.463Z,27.91
2023-05-01T14:27:22.211Z,27.88
2023-05-01T14:28:21.456Z,27.89
2023-05-01T14:29:21.512Z,27.88
2023-05-01T14:30:21.494Z,27.91
2023-05-01T14:31:21.773Z,27.88
2023-05-01T14:32:22.293Z,27.88
2023-05-01T14:33:21.553Z,27.91
2023-05-01T14:34:21.537Z,27.89
2023-05-01T14:35:21.604Z,27.88
2023-05-01T14:36:21.561Z,27.89
2023-05-01T14:37:21.565Z,27.86
2023-05-01T14:38:21.610Z,27.89
2023-05-01T14:39:21.606Z,27.89
2023-05-01T14:40:21.651Z,27.91
2023-05-01T14:41:21.700Z,27.92
2023-05-01T14:42:21.647Z,27.89
2023-05-01T14:43:21.634Z,27.89
2023-05-01T14:44:21.698Z,27.89
2023-05-01T14:45:21.714Z,27.92
2023-05-01T14:46:21.791Z,27.89
2023-05-01T14:47:21.807Z,27.89
2023-05-01T14:48:21.748Z,27.88
2023-05-01T14:49:21.773Z,27.91
2023-05-01T14:50:21.761Z,27.86
2023-05-01T14:51:21.803Z,27.88
2023-05-01T14:52:21.768Z,27.91
2023-05-01T14:53:21.803Z,27.92
2023-05-01T14:54:21.871Z,27.92
2023-05-01T14:55:21.861Z,27.91
2023-05-01T14:56:21.862Z,27.86
2023-05-01T14:57:21.848Z,27.91
2023-05-01T14:58:21.886Z,27.91
2023-05-01T14:59:21.881Z,27.88
2023-05-01T15:00:21.885Z,27.91
2023-05-01T15:01:22.064Z,27.89
2023-05-01T15:02:21.996Z,27.88
2023-05-01T15:03:22.131Z,27.86
2023-05-01T15:04:22.073Z,27.88
2023-05-01T15:05:21.989Z,27.91
2023-05-01T15:06:22.030Z,27.88
2023-05-01T15:07:22.045Z,27.86
2023-05-01T15:08:22.018Z,27.88
2023-05-01T15:09:22.044Z,27.89
2023-05-01T15:10:22.049Z,27.88
2023-05-01T15:11:22.098Z,27.89
2023-05-01T15:12:22.095Z,27.88
2023-05-01T15:13:22.132Z,27.88
2023-05-01T15:14:22.167Z,27.89
2023-05-01T15:15:22.143Z,27.86
2023-05-01T15:16:22.145Z,27.86
2023-05-01T15:17:22.235Z,27.88
2023-05-01T15:18:22.271Z,27.85
2023-05-01T15:19:22.241Z,27.85
2023-05-01T15:20:22.244Z,27.88
2023-05-01T15:21:22.413Z,27.86
2023-05-01T15:22:22.720Z,27.88
2023-05-01T15:23:22.299Z,27.85
2023-05-01T15:24:22.347Z,27.88
2023-05-01T15:25:22.387Z,27.86
2023-05-01T15:26:22.377Z,27.85
2023-05-01T15:27:22.380Z,27.85
2023-05-01T15:28:22.447Z,27.85
2023-05-01T15:29:22.420Z,27.84
2023-05-01T15:30:22.658Z,27.85
2023-05-01T15:31:22.533Z,27.85
2023-05-01T15:32:22.589Z,27.84
2023-05-01T15:33:22.579Z,27.84
2023-05-01T15:34:22.533Z,27.84
2023-05-01T15:35:22.566Z,27.86
2023-05-01T15:36:22.597Z,27.84
2023-05-01T15:37:22.615Z,27.84
2023-05-01T15:38:22.680Z,27.84
2023-05-01T15:39:22.638Z,27.85
2023-05-01T15:40:22.701Z,27.84
2023-05-01T15:41:22.717Z,27.84
2023-05-01T15:42:22.705Z,27.82
2023-05-01T15:43:22.768Z,27.84
2023-05-01T15:44:22.753Z,27.82
2023-05-01T15:45:22.764Z,27.82
2023-05-01T15:46:22.928Z,27.81
2023-05-01T15:47:22.984Z,27.82
2023-05-01T15:48:22.847Z,27.82
2023-05-01T15:49:22.887Z,27.81
2023-05-01T15:50:22.881Z,27.81
2023-05-01T15:51:22.932Z,27.82
2023-05-01T15:52:22.898Z,27.81
2023-05-01T15:53:22.964Z,27.79
2023-05-01T15:54:22.955Z,27.82
2023-05-01T15:55:23.008Z,27.81
2023-05-01T15:56:23.020Z,27.82
2023-05-01T15:57:23.124Z,27.79
2023-05-01T15:58:23.031Z,27.81
2023-05-01T15:59:23.045Z,27.82
2023-05-01T16:00:23.072Z,27.84
2023-05-01T16:01:23.166Z,27.78
2023-05-01T16:02:23.201Z,27.79
2023-05-01T16:03:23.412Z,27.79
2023-05-01T16:04:23.161Z,27.79
2023-05-01T16:05:23.201Z,27.79
2023-05-01T16:06:23.268Z,27.78
2023-05-01T16:07:23.264Z,27.78
2023-05-01T16:08:23.222Z,27.79
2023-05-01T16:09:23.276Z,27.79
2023-05-01T16:10:23.383Z,27.78
2023-05-01T16:11:23.314Z,27.78
2023-05-01T16:12:23.393Z,27.79
2023-05-01T16:13:23.359Z,27.76
2023-05-01T16:14:23.368Z,27.78
2023-05-01T16:15:23.416Z,27.76
2023-05-01T16:16:23.427Z,27.75
2023-05-01T16:17:23.475Z,27.75
2023-05-01T16:18:23.465Z,27.73
2023-05-01T16:19:23.477Z,27.75
2023-05-01T16:20:23.445Z,27.75
2023-05-01T16:21:23.470Z,27.75
2023-05-01T16:22:23.528Z,27.73
2023-05-01T16:23:23.523Z,27.76
2023-05-01T16:24:23.561Z,27.75
2023-05-01T16:25:23.567Z,27.73
2023-05-01T16:26:24.743Z,27.75
2023-05-01T16:27:23.621Z,27.73
2023-05-01T16:28:23.619Z,27.73
2023-05-01T16:29:23.785Z,27.73
2023-05-01T16:30:23.687Z,27.72
2023-05-01T16:31:27.673Z,27.73
2023-05-01T16:32:23.747Z,27.71
2023-05-01T16:33:23.657Z,27.73
2023-05-01T16:34:23.680Z,27.73
2023-05-01T16:35:23.674Z,27.72
2023-05-01T16:36:23.673Z,27.72
2023-05-01T16:37:23.672Z,27.72
2023-05-01T16:38:23.597Z,27.72
2023-05-01T16:39:23.640Z,27.73
2023-05-01T16:40:23.606Z,27.72
2023-05-01T16:41:23.609Z,27.73
2023-05-01T16:42:23.598Z,27.73
2023-05-01T16:43:23.595Z,27.71
2023-05-01T16:44:23.598Z,27.71
2023-05-01T16:45:23.600Z,27.69
2023-05-01T16:46:23.691Z,27.71
2023-05-01T16:47:23.566Z,27.71
2023-05-01T16:48:23.707Z,27.73
2023-05-01T16:49:23.585Z,27.71
2023-05-01T16:50:23.532Z,27.69
2023-05-01T16:51:23.558Z,27.69
2023-05-01T16:52:23.515Z,27.69
2023-05-01T16:53:23.502Z,27.68
2023-05-01T16:54:23.545Z,27.68
2023-05-01T16:55:23.534Z,27.68
2023-05-01T16:56:23.512Z,27.68
2023-05-01T16:57:23.493Z,27.68
2023-05-01T16:58:23.477Z,27.66
2023-05-01T16:59:23.486Z,27.69
2023-05-01T17:00:30.997Z,27.66
